createdAt,value
2018-01-27T00:00:15.249Z,25.60
2018-01-27T00:02:43.853Z,20.37
2018-01-27T00:05:13.489Z,22.90
2018-01-27T00:07:42.060Z,33.43
2018-01-27T00:10:10.489Z,36.80
2018-01-27T00:12:39.327Z,34.08
2018-01-27T00:15:08.129Z,30.45
2018-01-27T00:17:36.671Z,29.67
2018-01-27T00:20:05.620Z,19.33
2018-01-27T00:22:46.194Z,17.43
2018-01-27T00:25:15.204Z,20.63
2018-01-27T00:27:44.002Z,20.90
2018-01-27T00:30:12.617Z,18.77
2018-01-27T00:32:41.113Z,21.02
2018-01-27T00:35:09.739Z,20.90
2018-01-27T00:37:38.532Z,20.40
2018-01-27T00:40:07.314Z,19.42
2018-01-27T00:42:35.912Z,21.53
2018-01-27T00:45:04.557Z,20.80
2018-01-27T00:47:32.990Z,19.40
2018-01-27T00:50:01.474Z,19.30
2018-01-27T00:52:30.635Z,20.23
2018-01-27T00:54:59.032Z,20.35
2018-01-27T00:57:27.908Z,21.12
2018-01-27T00:59:56.314Z,19.47
2018-01-27T01:02:24.727Z,20.20
2018-01-27T01:04:54.017Z,21.10
2018-01-27T01:07:24.209Z,20.70
2018-01-27T01:09:52.601Z,19.80
2018-01-27T01:12:21.107Z,23.13
2018-01-27T01:14:49.485Z,20.07
2018-01-27T01:17:20.678Z,22.37
2018-01-27T01:19:50.826Z,21.43
2018-01-27T01:22:19.264Z,19.37
2018-01-27T01:24:47.679Z,20.77
2018-01-27T01:27:16.552Z,21.17
2018-01-27T01:29:44.980Z,20.73
2018-01-27T01:32:13.995Z,20.40
2018-01-27T01:34:42.382Z,20.93
2018-01-27T01:37:10.760Z,19.35
2018-01-27T01:39:40.414Z,20.85
2018-01-27T01:42:09.667Z,21.95
2018-01-27T01:44:38.287Z,23.12
2018-01-27T01:47:07.830Z,20.57
2018-01-27T01:49:37.291Z,23.10
2018-01-27T01:52:05.702Z,20.48
2018-01-27T01:54:35.522Z,21.62
2018-01-27T01:57:03.910Z,19.73
2018-01-27T01:59:32.449Z,20.90
2018-01-27T02:02:00.895Z,21.40
2018-01-27T02:04:29.299Z,22.60
2018-01-27T02:06:57.706Z,22.77
2018-01-27T02:09:26.299Z,21.40
2018-01-27T02:11:55.026Z,20.80
2018-01-27T02:14:23.489Z,20.30
2018-01-27T02:16:51.989Z,22.55
2018-01-27T02:19:21.183Z,21.45
2018-01-27T02:21:51.119Z,23.50
2018-01-27T02:24:20.550Z,22.23
2018-01-27T02:26:48.972Z,22.10
2018-01-27T02:29:17.422Z,21.70
2018-01-27T02:31:46.185Z,22.07
2018-01-27T02:34:14.646Z,21.57
2018-01-27T02:36:43.391Z,21.33
2018-01-27T02:39:11.917Z,24.00
2018-01-27T02:41:40.319Z,21.83
2018-01-27T02:44:08.720Z,21.67
2018-01-27T02:46:38.068Z,22.77
2018-01-27T02:49:06.674Z,22.40
2018-01-27T02:51:35.125Z,22.80
2018-01-27T02:54:03.600Z,20.70
2018-01-27T02:56:32.783Z,22.40
2018-01-27T02:59:01.179Z,23.33
2018-01-27T03:01:30.429Z,22.40
2018-01-27T03:03:58.874Z,22.75
2018-01-27T03:06:27.320Z,22.00
2018-01-27T03:08:55.807Z,21.05
2018-01-27T03:11:24.205Z,21.20
2018-01-27T03:13:52.641Z,21.50
2018-01-27T03:16:21.049Z,22.83
2018-01-27T03:18:49.480Z,20.88
2018-01-27T03:21:18.676Z,20.12
2018-01-27T03:23:47.130Z,22.67
2018-01-27T03:26:15.511Z,22.37
2018-01-27T03:28:44.704Z,23.60
2018-01-27T03:31:13.084Z,23.17
2018-01-27T03:33:41.600Z,23.83
2018-01-27T03:36:09.986Z,23.80
2018-01-27T03:38:38.363Z,24.58
2018-01-27T03:41:06.808Z,23.30
2018-01-27T03:43:35.204Z,22.47
2018-01-27T03:46:03.569Z,23.33
2018-01-27T03:48:32.568Z,22.30
2018-01-27T03:51:01.332Z,21.00
2018-01-27T03:53:30.482Z,22.17
2018-01-27T03:55:59.819Z,22.83
2018-01-27T03:58:28.286Z,24.13
2018-01-27T04:00:56.659Z,23.80
2018-01-27T04:03:25.141Z,24.60
2018-01-27T04:05:54.560Z,24.63
2018-01-27T04:08:27.177Z,23.20
2018-01-27T04:10:55.988Z,23.40
2018-01-27T04:13:24.386Z,23.67
2018-01-27T04:15:52.865Z,23.43
2018-01-27T04:18:21.670Z,24.43
2018-01-27T04:20:50.750Z,21.00
2018-01-27T04:23:22.625Z,24.20
2018-01-27T04:25:52.341Z,24.33
2018-01-27T04:28:20.768Z,25.23
2018-01-27T04:30:50.369Z,22.00
2018-01-27T04:33:18.765Z,25.17
2018-01-27T04:35:47.938Z,24.77
2018-01-27T04:38:16.437Z,26.03
2018-01-27T04:40:44.825Z,25.33
2018-01-27T04:43:13.218Z,23.07
2018-01-27T04:45:42.544Z,23.83
2018-01-27T04:48:11.683Z,23.23
2018-01-27T04:50:40.079Z,24.33
2018-01-27T04:53:09.167Z,23.40
2018-01-27T04:55:37.538Z,24.57
2018-01-27T04:58:07.057Z,23.80
2018-01-27T05:00:37.609Z,24.10
2018-01-27T05:03:06.083Z,24.40
2018-01-27T05:05:34.465Z,24.97
2018-01-27T05:08:02.948Z,24.93
2018-01-27T05:10:31.401Z,24.33
2018-01-27T05:13:00.597Z,25.33
2018-01-27T05:15:29.847Z,24.97
2018-01-27T05:17:58.195Z,21.50
2018-01-27T05:20:27.368Z,22.07
2018-01-27T05:22:56.635Z,23.73
2018-01-27T05:25:25.034Z,23.50
2018-01-27T05:27:53.419Z,23.57
2018-01-27T05:30:22.233Z,23.50
2018-01-27T05:32:50.661Z,24.93
2018-01-27T05:35:19.067Z,23.33
2018-01-27T05:37:48.390Z,23.53
2018-01-27T05:40:17.129Z,23.07
2018-01-27T05:42:45.586Z,24.30
2018-01-27T05:45:14.002Z,21.52
2018-01-27T05:47:42.405Z,24.00
2018-01-27T05:50:11.697Z,23.80
2018-01-27T05:52:40.855Z,23.80
2018-01-27T05:55:09.456Z,23.40
2018-01-27T05:57:37.919Z,26.47
2018-01-27T06:00:06.305Z,24.93
2018-01-27T06:02:34.948Z,24.53
2018-01-27T06:05:03.560Z,23.12
2018-01-27T06:07:31.964Z,26.77
2018-01-27T06:10:00.368Z,25.50
2018-01-27T06:12:29.754Z,28.87
2018-01-27T06:14:58.508Z,27.75
2018-01-27T06:17:26.974Z,27.73
2018-01-27T06:19:56.624Z,28.03
2018-01-27T06:22:25.111Z,27.80
2018-01-27T06:24:53.509Z,29.37
2018-01-27T06:27:22.033Z,27.87
2018-01-27T06:29:51.179Z,27.33
2018-01-27T06:32:19.630Z,28.27
2018-01-27T06:34:48.902Z,27.40
2018-01-27T06:37:17.302Z,28.27
2018-01-27T06:39:46.469Z,29.17
2018-01-27T06:42:14.959Z,29.40
2018-01-27T06:44:43.370Z,28.10
2018-01-27T06:47:11.745Z,29.60
2018-01-27T06:49:40.220Z,28.30
2018-01-27T06:52:08.618Z,28.00
2018-01-27T06:54:36.998Z,28.10
2018-01-27T06:57:05.714Z,28.93
2018-01-27T06:59:34.142Z,29.70
2018-01-27T07:02:02.531Z,30.00
2018-01-27T07:04:31.009Z,29.67
2018-01-27T07:06:59.402Z,28.53
2018-01-27T07:09:27.797Z,31.40
2018-01-27T07:11:56.235Z,28.80
2018-01-27T07:14:24.672Z,27.80
2018-01-27T07:16:53.083Z,29.73
2018-01-27T07:19:22.351Z,29.47
2018-01-27T07:21:50.762Z,30.90
2018-01-27T07:27:03.061Z,29.13
2018-01-27T07:29:31.606Z,29.83
2018-01-27T07:32:00.743Z,29.07
2018-01-27T07:34:29.519Z,28.23
2018-01-27T07:36:59.741Z,29.70
2018-01-27T07:39:29.407Z,30.50
2018-01-27T07:41:58.647Z,29.87
2018-01-27T07:44:27.876Z,28.27
2018-01-27T07:46:57.467Z,30.17
2018-01-27T07:49:26.124Z,30.73
2018-01-27T07:51:54.528Z,31.20
2018-01-27T07:54:23.039Z,29.63
2018-01-27T07:56:51.544Z,32.67
2018-01-27T07:59:20.336Z,31.45
2018-01-27T08:01:48.849Z,33.77
2018-01-27T08:04:17.979Z,29.63
2018-01-27T08:06:46.599Z,30.10
2018-01-27T08:09:15.542Z,29.50
2018-01-27T08:11:43.967Z,32.37
2018-01-27T08:14:12.355Z,30.90
2018-01-27T08:16:40.833Z,30.62
2018-01-27T08:19:09.192Z,31.60
2018-01-27T08:21:37.758Z,31.70
2018-01-27T08:24:06.549Z,31.10
2018-01-27T08:26:35.704Z,31.90
2018-01-27T08:29:04.065Z,31.70
2018-01-27T08:31:33.613Z,30.40
2018-01-27T08:34:07.007Z,29.60
2018-01-27T08:36:35.380Z,30.13
2018-01-27T08:39:04.200Z,30.93
2018-01-27T08:41:32.853Z,29.00
2018-01-27T08:44:01.317Z,32.33
2018-01-27T08:46:30.335Z,33.40
2018-01-27T08:48:59.282Z,30.93
2018-01-27T08:51:27.693Z,34.13
2018-01-27T08:53:56.560Z,31.47
2018-01-27T08:56:28.993Z,29.80
2018-01-27T08:58:58.234Z,33.03
2018-01-27T09:01:27.683Z,31.80
2018-01-27T09:03:56.434Z,31.50
2018-01-27T09:06:25.962Z,30.50
2018-01-27T09:08:54.605Z,30.23
2018-01-27T09:11:23.364Z,29.50
2018-01-27T09:13:53.538Z,30.83
2018-01-27T09:16:22.760Z,30.43
2018-01-27T09:18:51.456Z,29.83
2018-01-27T09:21:20.302Z,30.33
2018-01-27T09:23:48.869Z,30.97
2018-01-27T09:26:17.298Z,31.10
2018-01-27T09:28:46.720Z,34.20
2018-01-27T09:31:16.086Z,31.73
2018-01-27T09:33:44.591Z,32.00
2018-01-27T09:36:14.088Z,31.67
2018-01-27T09:38:43.540Z,30.50
2018-01-27T09:41:13.327Z,30.63
2018-01-27T09:43:42.647Z,28.30
2018-01-27T09:46:12.249Z,29.90
2018-01-27T09:48:41.027Z,29.77
2018-01-27T09:51:09.656Z,31.50
2018-01-27T09:53:38.360Z,30.60
2018-01-27T09:56:07.824Z,29.73
2018-01-27T09:58:37.231Z,29.73
2018-01-27T10:01:05.971Z,29.60
2018-01-27T10:03:36.285Z,28.37
2018-01-27T10:06:06.015Z,29.60
2018-01-27T10:08:35.483Z,29.17
2018-01-27T10:11:04.131Z,28.20
2018-01-27T10:13:32.998Z,27.83
2018-01-27T10:16:03.310Z,29.10
2018-01-27T10:18:32.529Z,26.87
2018-01-27T10:21:05.335Z,28.87
2018-01-27T10:23:34.832Z,28.67
2018-01-27T10:26:04.526Z,27.13
2018-01-27T10:28:37.155Z,31.80
2018-01-27T10:31:06.671Z,31.50
2018-01-27T10:33:36.051Z,29.80
2018-01-27T10:36:04.483Z,28.97
2018-01-27T10:38:32.978Z,27.30
2018-01-27T10:41:02.418Z,27.83
2018-01-27T10:43:30.895Z,28.80
2018-01-27T10:45:59.931Z,28.80
2018-01-27T10:48:28.379Z,29.77
2018-01-27T10:50:56.774Z,31.10
2018-01-27T10:53:25.290Z,32.23
2018-01-27T10:55:53.657Z,28.53
2018-01-27T10:58:22.048Z,31.20
2018-01-27T11:00:51.059Z,30.83
2018-01-27T11:03:19.745Z,30.10
2018-01-27T11:05:49.158Z,31.57
2018-01-27T11:08:18.571Z,33.93
2018-01-27T11:10:47.031Z,32.27
2018-01-27T11:13:15.439Z,33.07
2018-01-27T11:15:44.250Z,35.17
2018-01-27T11:18:13.433Z,36.60
2018-01-27T11:20:41.917Z,31.93
2018-01-27T11:23:10.431Z,33.50
2018-01-27T11:25:38.858Z,33.20
2018-01-27T11:28:08.039Z,30.67
2018-01-27T11:30:36.863Z,32.33
2018-01-27T11:33:05.236Z,33.10
2018-01-27T11:35:33.691Z,30.13
2018-01-27T11:38:02.997Z,31.67
2018-01-27T11:40:31.503Z,29.57
2018-01-27T11:42:59.936Z,31.23
2018-01-27T11:45:28.689Z,29.43
2018-01-27T11:47:57.074Z,31.00
2018-01-27T11:50:25.541Z,30.27
2018-01-27T11:52:54.127Z,32.10
2018-01-27T11:55:22.538Z,31.73
2018-01-27T11:57:50.974Z,29.50
2018-01-27T12:00:19.553Z,30.13
2018-01-27T12:02:48.768Z,28.50
2018-01-27T12:05:17.908Z,28.63
2018-01-27T12:07:46.389Z,29.10
2018-01-27T12:10:15.100Z,31.50
2018-01-27T12:12:43.481Z,35.30
2018-01-27T12:15:12.779Z,35.73
2018-01-27T12:17:41.177Z,35.63
2018-01-27T12:20:09.614Z,35.03
2018-01-27T12:22:38.752Z,37.03
2018-01-27T12:25:07.205Z,36.17
2018-01-27T12:27:35.627Z,31.60
2018-01-27T12:30:04.128Z,31.47
2018-01-27T12:32:32.530Z,31.03
2018-01-27T12:35:00.903Z,31.83
2018-01-27T12:37:30.330Z,30.23
2018-01-27T12:39:59.497Z,29.57
2018-01-27T12:42:27.895Z,28.97
2018-01-27T12:44:56.639Z,28.27
2018-01-27T12:47:32.823Z,28.73
2018-01-27T12:50:01.339Z,29.60
2018-01-27T12:52:29.783Z,29.07
2018-01-27T12:54:58.206Z,27.43
2018-01-27T12:57:27.580Z,25.90
2018-01-27T12:59:55.957Z,27.57
2018-01-27T13:02:24.376Z,27.33
2018-01-27T13:04:53.945Z,27.10
2018-01-27T13:07:22.321Z,26.13
2018-01-27T13:09:50.896Z,27.33
2018-01-27T13:12:21.181Z,27.07
2018-01-27T13:14:49.763Z,30.27
2018-01-27T13:17:19.139Z,26.93
2018-01-27T13:19:47.975Z,27.97
2018-01-27T13:22:16.728Z,28.37
2018-01-27T13:24:45.266Z,29.83
2018-01-27T13:27:13.836Z,28.37
2018-01-27T13:29:43.260Z,27.50
2018-01-27T13:32:12.575Z,29.63
2018-01-27T13:34:41.055Z,29.43
2018-01-27T13:37:09.673Z,26.87
2018-01-27T13:39:39.002Z,28.20
2018-01-27T13:42:07.475Z,27.43
2018-01-27T13:44:36.209Z,29.43
2018-01-27T13:47:05.252Z,29.73
2018-01-27T13:49:33.682Z,28.40
2018-01-27T13:52:02.982Z,29.07
2018-01-27T13:54:33.721Z,28.83
2018-01-27T13:57:02.194Z,28.40
2018-01-27T13:59:30.782Z,26.17
2018-01-27T14:02:00.182Z,24.60
2018-01-27T14:04:28.587Z,25.60
2018-01-27T14:06:57.195Z,26.87
2018-01-27T14:09:26.017Z,26.87
2018-01-27T14:11:54.649Z,30.50
2018-01-27T14:14:23.373Z,27.10
2018-01-27T14:16:52.924Z,27.90
2018-01-27T14:19:21.282Z,29.53
2018-01-27T14:21:51.264Z,27.50
2018-01-27T14:24:20.534Z,28.53
2018-01-27T14:26:48.915Z,28.07
2018-01-27T14:29:17.937Z,28.00
2018-01-27T14:31:46.452Z,28.83
2018-01-27T14:34:15.638Z,28.57
2018-01-27T14:36:44.893Z,27.97
2018-01-27T14:39:13.300Z,29.63
2018-01-27T14:41:41.743Z,28.50
2018-01-27T14:44:10.229Z,27.27
2018-01-27T14:46:38.628Z,27.97
2018-01-27T14:49:07.595Z,29.80
2018-01-27T14:51:37.609Z,28.90
2018-01-27T14:54:07.017Z,30.80
2018-01-27T14:56:37.078Z,29.40
2018-01-27T14:59:05.530Z,29.20
2018-01-27T15:01:34.847Z,29.73
2018-01-27T15:04:03.314Z,30.00
2018-01-27T15:06:32.488Z,28.27
2018-01-27T15:09:00.968Z,26.83
2018-01-27T15:11:29.480Z,26.37
2018-01-27T15:13:58.666Z,29.30
2018-01-27T15:16:28.329Z,29.63
2018-01-27T15:18:56.714Z,28.70
2018-01-27T15:21:25.622Z,28.33
2018-01-27T15:23:54.045Z,29.00
2018-01-27T15:26:22.416Z,26.80
2018-01-27T15:28:51.149Z,30.90
2018-01-27T15:31:19.694Z,30.67
2018-01-27T15:33:48.089Z,29.87
2018-01-27T15:36:16.911Z,29.37
2018-01-27T15:38:46.160Z,29.20
2018-01-27T15:41:14.691Z,30.63
2018-01-27T15:43:44.108Z,28.13
2018-01-27T15:46:13.268Z,29.17
2018-01-27T15:48:41.674Z,29.50
2018-01-27T15:51:10.462Z,30.30
2018-01-27T15:53:39.668Z,32.00
2018-01-27T15:56:08.036Z,30.20
2018-01-27T15:58:36.812Z,27.80
2018-01-27T16:01:05.272Z,30.40
2018-01-27T16:03:35.431Z,30.73
2018-01-27T16:06:04.296Z,31.07
2018-01-27T16:08:33.642Z,29.47
2018-01-27T16:11:02.528Z,32.10
2018-01-27T16:13:31.207Z,30.73
2018-01-27T16:15:59.698Z,32.97
2018-01-27T16:18:28.739Z,31.03
2018-01-27T16:20:58.182Z,33.27
2018-01-27T16:23:26.629Z,29.93
2018-01-27T16:25:55.832Z,30.60
2018-01-27T16:28:24.752Z,29.47
2018-01-27T16:30:53.538Z,29.03
2018-01-27T16:33:22.413Z,33.23
2018-01-27T16:35:54.127Z,31.20
2018-01-27T16:38:23.434Z,29.60
2018-01-27T16:40:53.703Z,30.60
2018-01-27T16:43:24.981Z,32.63
2018-01-27T16:45:55.634Z,33.37
2018-01-27T16:48:28.249Z,29.57
2018-01-27T16:51:01.465Z,32.70
2018-01-27T16:53:33.427Z,32.17
2018-01-27T16:56:05.476Z,33.40
2018-01-27T16:58:39.232Z,34.43
2018-01-27T17:01:14.151Z,32.70
2018-01-27T17:03:49.181Z,32.67
2018-01-27T17:06:20.688Z,31.93
2018-01-27T17:08:53.363Z,32.77
2018-01-27T17:11:29.515Z,32.40
2018-01-27T17:14:03.845Z,32.90
2018-01-27T17:16:37.602Z,33.80
2018-01-27T17:19:11.437Z,34.97
2018-01-27T17:21:42.792Z,34.87
2018-01-27T17:24:11.994Z,35.23
2018-01-27T17:26:40.392Z,33.27
2018-01-27T17:29:08.785Z,32.60
2018-01-27T17:31:37.274Z,30.40
2018-01-27T17:34:05.695Z,34.87
2018-01-27T17:36:34.861Z,34.47
2018-01-27T17:39:03.981Z,33.60
2018-01-27T17:41:32.417Z,32.53
2018-01-27T17:44:05.717Z,33.50
2018-01-27T17:46:34.967Z,34.30
2018-01-27T17:49:04.243Z,34.73
2018-01-27T17:51:33.086Z,32.90
2018-01-27T17:54:02.275Z,35.60
2018-01-27T17:56:32.315Z,30.30
2018-01-27T17:59:01.645Z,29.37
2018-01-27T18:01:31.941Z,32.70
2018-01-27T18:04:00.737Z,36.73
2018-01-27T18:06:30.354Z,36.30
2018-01-27T18:09:00.353Z,34.90
2018-01-27T18:11:30.317Z,34.63
2018-01-27T18:13:59.724Z,33.57
2018-01-27T18:16:29.639Z,33.40
2018-01-27T18:18:58.929Z,31.50
2018-01-27T18:21:27.652Z,31.13
2018-01-27T18:23:56.511Z,26.87
2018-01-27T18:26:26.116Z,27.37
2018-01-27T18:28:54.515Z,28.10
2018-01-27T18:31:23.293Z,27.83
2018-01-27T18:33:51.854Z,27.80
2018-01-27T18:36:20.623Z,29.10
2018-01-27T18:38:50.304Z,29.50
2018-01-27T18:41:19.026Z,27.90
2018-01-27T18:43:48.925Z,29.03
2018-01-27T18:46:18.441Z,28.27
2018-01-27T18:48:47.167Z,28.07
2018-01-27T18:51:16.314Z,29.47
2018-01-27T18:53:45.212Z,30.57
2018-01-27T18:56:14.604Z,31.67
2018-01-27T18:58:44.232Z,30.70
2018-01-27T19:01:13.347Z,30.53
2018-01-27T19:03:42.538Z,28.57
2018-01-27T19:06:11.074Z,31.10
2018-01-27T19:08:39.971Z,29.20
2018-01-27T19:11:08.442Z,28.73
2018-01-27T19:13:37.001Z,28.93
2018-01-27T19:16:05.906Z,29.90
2018-01-27T19:18:35.935Z,28.95
2018-01-27T19:21:04.566Z,30.48
2018-01-27T19:23:35.708Z,28.73
2018-01-27T19:26:04.618Z,29.30
2018-01-27T19:28:34.007Z,27.70
2018-01-27T19:31:02.470Z,32.13
2018-01-27T19:33:32.173Z,33.87
2018-01-27T19:36:00.772Z,28.40
2018-01-27T19:38:29.444Z,30.20
2018-01-27T19:40:59.242Z,31.07
2018-01-27T19:43:27.776Z,30.50
2018-01-27T19:45:56.420Z,32.50
2018-01-27T19:48:25.134Z,30.30
2018-01-27T19:50:53.814Z,31.60
2018-01-27T19:53:23.189Z,30.67
2018-01-27T19:55:53.280Z,29.47
2018-01-27T19:58:22.684Z,30.97
2018-01-27T20:00:53.005Z,28.93
2018-01-27T20:03:21.544Z,29.13
2018-01-27T20:05:49.962Z,28.48
2018-01-27T20:08:19.441Z,28.85
2018-01-27T20:10:48.964Z,30.47
2018-01-27T20:13:19.367Z,29.10
2018-01-27T20:15:49.290Z,28.77
2018-01-27T20:18:18.665Z,27.30
2018-01-27T20:20:47.896Z,28.97
2018-01-27T20:23:19.596Z,27.50
2018-01-27T20:25:51.304Z,27.93
2018-01-27T20:28:22.814Z,27.87
2018-01-27T20:30:52.459Z,28.33
2018-01-27T20:33:21.322Z,27.98
2018-01-27T20:35:50.719Z,28.00
2018-01-27T20:38:19.165Z,27.10
2018-01-27T20:40:49.349Z,29.73
2018-01-27T20:43:18.790Z,27.87
2018-01-27T20:45:47.400Z,28.50
2018-01-27T20:48:16.010Z,28.95
2018-01-27T20:50:45.438Z,30.20
2018-01-27T20:53:15.318Z,27.30
2018-01-27T20:55:44.199Z,28.77
2018-01-27T20:58:12.722Z,29.13
2018-01-27T21:00:41.264Z,29.37
2018-01-27T21:03:11.127Z,27.93
2018-01-27T21:05:40.307Z,27.60
2018-01-27T21:08:08.748Z,31.37
2018-01-27T21:10:37.222Z,29.50
2018-01-27T21:13:09.641Z,26.83
2018-01-27T21:15:39.036Z,28.12
2018-01-27T21:18:07.733Z,27.60
2018-01-27T21:20:39.848Z,31.87
2018-01-27T21:23:09.620Z,26.47
2018-01-27T21:25:39.373Z,28.10
2018-01-27T21:28:09.144Z,30.75
2018-01-27T21:30:40.226Z,23.57
2018-01-27T21:33:13.153Z,28.87
2018-01-27T21:35:42.632Z,27.30
2018-01-27T21:38:11.032Z,25.57
2018-01-27T21:40:39.452Z,25.77
2018-01-27T21:43:08.812Z,27.37
2018-01-27T21:45:38.134Z,26.80
2018-01-27T21:48:07.320Z,26.12
2018-01-27T21:50:36.170Z,29.67
2018-01-27T21:53:04.990Z,25.63
2018-01-27T21:55:33.451Z,25.58
2018-01-27T21:58:02.116Z,26.80
2018-01-27T22:00:30.495Z,26.77
2018-01-27T22:02:58.882Z,26.00
2018-01-27T22:05:27.385Z,24.50
2018-01-27T22:07:55.767Z,25.70
2018-01-27T22:10:24.151Z,25.17
2018-01-27T22:12:52.953Z,23.90
2018-01-27T22:15:21.358Z,25.57
2018-01-27T22:17:49.778Z,27.57
2018-01-27T22:20:18.398Z,26.83
2018-01-27T22:22:46.779Z,24.07
2018-01-27T22:25:15.164Z,26.10
2018-01-27T22:27:43.650Z,24.70
2018-01-27T22:30:12.426Z,22.80
2018-01-27T22:32:41.022Z,23.67
2018-01-27T22:35:09.664Z,26.90
2018-01-27T22:37:38.113Z,24.63
2018-01-27T22:40:06.560Z,24.60
2018-01-27T22:42:35.224Z,23.97
2018-01-27T22:45:04.403Z,25.65
2018-01-27T22:47:32.839Z,25.80
2018-01-27T22:50:01.398Z,23.97
2018-01-27T22:52:30.616Z,23.57
2018-01-27T22:54:58.980Z,25.50
2018-01-27T22:57:27.472Z,23.30
2018-01-27T22:59:56.672Z,24.08
2018-01-27T23:02:25.112Z,24.20
2018-01-27T23:04:53.656Z,25.07
2018-01-27T23:07:22.848Z,25.73
2018-01-27T23:09:51.259Z,24.67
2018-01-27T23:12:20.844Z,24.03
2018-01-27T23:14:49.212Z,23.13
2018-01-27T23:17:17.575Z,22.83
2018-01-27T23:19:46.144Z,26.00
2018-01-27T23:22:14.533Z,24.10
2018-01-27T23:24:42.966Z,26.10
2018-01-27T23:27:11.451Z,24.07
2018-01-27T23:29:39.843Z,25.90
2018-01-27T23:32:09.788Z,26.43
2018-01-27T23:34:38.380Z,23.43
2018-01-27T23:37:06.779Z,26.27
2018-01-27T23:39:35.221Z,25.93
2018-01-27T23:42:04.469Z,26.77
2018-01-27T23:44:32.855Z,23.63
2018-01-27T23:47:01.253Z,25.50
2018-01-27T23:49:29.720Z,26.65
2018-01-27T23:51:58.158Z,25.20
2018-01-27T23:54:27.305Z,24.52
2018-01-27T23:56:55.822Z,25.00
2018-01-27T23:59:25.030Z,23.53
